Time;durP1;ratioP1;P1;durP2;ratioP2;P2;SDS_P1;SDS_P2;PMS_P1;PMS_P2;Temp;Humidity;BMP_temperature;BMP_pressure;BME280_temperature;BME280_humidity;BME280_pressure;Samples;Min_cycle;Max_cycle;Signal;HPM_P1;HPM_P2
2022/04/12 00:00:34;;;;;;;3.90;2.83;;;;;16.20;100984.00;;;;5054955;28;20342;-79
2022/04/12 00:03:01;;;;;;;4.28;3.50;;;;;16.20;100990.00;;;;5056453;28;20646;-78
2022/04/12 00:05:29;;;;;;;5.03;3.22;;;;;16.20;100993.00;;;;5058790;28;20550;-78
2022/04/12 00:07:56;;;;;;;3.80;2.97;;;;;16.20;100984.00;;;;5057962;28;20278;-78
2022/04/12 00:10:23;;;;;;;5.20;3.33;;;;;16.20;100979.00;;;;5059259;28;20705;-78
2022/04/12 00:12:51;;;;;;;3.78;2.85;;;;;16.20;100975.00;;;;5056019;28;20191;-78
2022/04/12 00:15:18;;;;;;;5.85;3.30;;;;;16.20;100970.00;;;;5057241;28;20203;-78
2022/04/12 00:20:32;;;;;;;4.22;3.08;;;;;16.20;100966.00;;;;5054654;28;20681;-78
2022/04/12 00:22:59;;;;;;;3.47;2.55;;;;;16.20;100954.00;;;;5055348;28;20708;-78
2022/04/12 00:25:28;;;;;;;4.05;2.97;;;;;16.20;100944.00;;;;5056700;28;20223;-78
2022/04/12 00:27:57;;;;;;;5.05;3.33;;;;;16.20;100937.00;;;;5058683;28;20229;-78
2022/04/12 00:30:26;;;;;;;4.13;2.90;;;;;16.20;100930.00;;;;5058714;28;20654;-79
2022/04/12 00:32:54;;;;;;;3.40;2.67;;;;;16.20;100938.00;;;;5055758;28;20214;-78
2022/04/12 00:35:23;;;;;;;4.20;2.90;;;;;16.20;100939.00;;;;5058692;28;20581;-78
2022/04/12 00:37:51;;;;;;;5.10;2.85;;;;;16.20;100932.00;;;;5057474;28;20191;-78
2022/04/12 00:40:18;;;;;;;2.92;2.33;;;;;16.20;100933.00;;;;5060486;28;20241;-79
2022/04/12 00:42:46;;;;;;;3.75;3.00;;;;;16.20;100938.00;;;;5058245;28;20698;-78
2022/04/12 00:45:13;;;;;;;4.43;2.65;;;;;16.20;100952.00;;;;5053876;28;20204;-79
2022/04/12 00:47:45;;;;;;;4.40;2.70;;;;;16.20;100956.00;;;;5058345;28;20636;-78
2022/04/12 00:50:15;;;;;;;4.07;2.97;;;;;16.20;100957.00;;;;5060162;28;20219;-78
2022/04/12 00:52:48;;;;;;;3.85;2.53;;;;;16.20;100966.00;;;;5059731;28;20198;-78
2022/04/12 00:55:15;;;;;;;4.13;2.67;;;;;16.30;100974.00;;;;5057740;28;20558;-78
2022/04/12 00:57:43;;;;;;;3.67;2.45;;;;;16.30;100975.00;;;;5054796;28;20202;-79
2022/04/12 01:00:12;;;;;;;6.15;3.15;;;;;16.30;100973.00;;;;5053894;28;20195;-79
2022/04/12 01:02:40;;;;;;;3.38;2.25;;;;;16.30;100974.00;;;;5055529;28;20234;-78
2022/04/12 01:05:08;;;;;;;3.75;2.90;;;;;16.30;100971.00;;;;5054181;28;20199;-78
2022/04/12 01:07:38;;;;;;;3.42;2.35;;;;;16.20;100973.00;;;;5058012;28;20204;-78
2022/04/12 01:10:06;;;;;;;4.25;2.78;;;;;16.30;100967.00;;;;5058801;28;20234;-78
2022/04/12 01:12:38;;;;;;;4.65;3.00;;;;;16.20;100969.00;;;;5057711;28;20211;-78
2022/04/12 01:15:13;;;;;;;6.10;2.55;;;;;16.20;100964.00;;;;5060325;28;20732;-78
2022/04/12 01:17:40;;;;;;;3.28;2.72;;;;;16.20;100966.00;;;;5058712;28;20279;-79
2022/04/12 01:20:09;;;;;;;3.88;2.83;;;;;16.20;100968.00;;;;5057672;28;20215;-78
2022/04/12 01:22:45;;;;;;;3.35;2.50;;;;;16.10;100956.00;;;;5058535;28;20207;-78
2022/04/12 01:25:13;;;;;;;3.38;2.70;;;;;16.20;100958.00;;;;5061088;28;20759;-78
2022/04/12 01:27:41;;;;;;;3.70;2.92;;;;;16.10;100968.00;;;;5059543;28;20187;-79
2022/04/12 01:30:09;;;;;;;3.38;2.40;;;;;16.10;100963.00;;;;5057764;28;20219;-79
2022/04/12 01:32:36;;;;;;;3.75;2.72;;;;;16.10;100962.00;;;;5057066;28;20207;-79
2022/04/12 01:35:04;;;;;;;4.07;2.70;;;;;16.10;100953.00;;;;5059097;28;20632;-78
2022/04/12 01:37:31;;;;;;;3.97;2.72;;;;;16.10;100954.00;;;;5059877;28;20214;-79
2022/04/12 01:39:58;;;;;;;5.45;2.88;;;;;16.10;100954.00;;;;5060734;28;20207;-78
2022/04/12 01:42:27;;;;;;;3.90;2.45;;;;;16.00;100956.00;;;;5058580;28;20669;-78
2022/04/12 01:44:54;;;;;;;3.72;2.45;;;;;16.00;100961.00;;;;5061841;28;20212;-80
2022/04/12 01:47:21;;;;;;;3.70;2.83;;;;;16.00;100950.00;;;;5059510;28;20569;-80
2022/04/12 01:49:49;;;;;;;5.18;2.72;;;;;16.00;100947.00;;;;5062454;28;20594;-80
2022/04/12 01:52:16;;;;;;;2.83;2.38;;;;;16.00;100946.00;;;;5060678;28;20248;-80
2022/04/12 01:54:43;;;;;;;5.75;2.78;;;;;16.00;100948.00;;;;5059695;28;20199;-81
2022/04/12 01:57:10;;;;;;;3.00;2.22;;;;;15.90;100943.00;;;;5060920;28;20191;-80
2022/04/12 01:59:39;;;;;;;4.20;2.85;;;;;15.90;100939.00;;;;5059696;28;20661;-80
2022/04/12 02:02:06;;;;;;;3.05;2.55;;;;;15.90;100936.00;;;;5059813;28;20195;-80
2022/04/12 02:04:34;;;;;;;3.92;2.45;;;;;15.90;100939.00;;;;5061059;28;20199;-79
2022/04/12 02:07:01;;;;;;;3.40;2.53;;;;;15.90;100937.00;;;;5061159;28;20199;-80
2022/04/12 02:09:28;;;;;;;3.25;1.98;;;;;15.80;100936.00;;;;5060527;28;20241;-80
2022/04/12 02:11:56;;;;;;;4.40;2.67;;;;;15.80;100920.00;;;;5057992;28;20191;-80
2022/04/12 02:14:24;;;;;;;3.05;2.45;;;;;15.80;100930.00;;;;5059417;28;21168;-80
2022/04/12 02:16:53;;;;;;;6.47;2.42;;;;;15.80;100915.00;;;;5059140;28;20203;-80
2022/04/12 02:19:20;;;;;;;4.30;2.65;;;;;15.80;100923.00;;;;5062096;28;20710;-80
2022/04/12 02:21:47;;;;;;;3.83;2.70;;;;;15.80;100923.00;;;;5061296;28;20198;-80
2022/04/12 02:24:14;;;;;;;4.03;2.80;;;;;15.80;100927.00;;;;5062385;28;20228;-80
2022/04/12 02:26:42;;;;;;;3.40;2.30;;;;;15.80;100929.00;;;;5058343;28;20196;-79
2022/04/12 02:29:09;;;;;;;3.45;2.50;;;;;15.80;100925.00;;;;5060944;28;20710;-80
2022/04/12 02:31:37;;;;;;;4.50;2.42;;;;;15.80;100929.00;;;;5060394;28;20908;-80
2022/04/12 02:34:05;;;;;;;4.32;2.45;;;;;15.70;100932.00;;;;5057919;28;20206;-78
2022/04/12 02:36:33;;;;;;;3.75;2.13;;;;;15.70;100932.00;;;;5056934;28;20235;-77
2022/04/12 02:39:00;;;;;;;3.42;2.45;;;;;15.70;100927.00;;;;5061147;28;20198;-77
2022/04/12 02:41:27;;;;;;;3.90;2.20;;;;;15.70;100930.00;;;;5060330;28;20199;-77
2022/04/12 02:43:54;;;;;;;4.45;2.88;;;;;15.70;100925.00;;;;5061877;28;20215;-77
2022/04/12 02:46:22;;;;;;;5.07;2.50;;;;;15.70;100925.00;;;;5059759;28;20736;-77
2022/04/12 02:48:49;;;;;;;3.67;2.50;;;;;15.70;100921.00;;;;5061994;28;20248;-77
2022/04/12 02:51:17;;;;;;;2.72;2.17;;;;;15.70;100921.00;;;;5057671;28;20227;-77
2022/04/12 02:53:45;;;;;;;3.65;2.63;;;;;15.60;100908.00;;;;5058809;28;20254;-78
2022/04/12 02:56:12;;;;;;;3.20;2.38;;;;;15.60;100905.00;;;;5060967;28;20245;-80
2022/04/12 02:58:39;;;;;;;3.47;2.22;;;;;15.60;100900.00;;;;5056605;28;20665;-80
2022/04/12 03:01:06;;;;;;;3.55;2.80;;;;;15.60;100902.00;;;;5062098;28;20214;-79
2022/04/12 03:03:34;;;;;;;3.75;2.90;;;;;15.60;100902.00;;;;5061949;28;20192;-80
2022/04/12 03:06:01;;;;;;;3.92;2.53;;;;;15.50;100901.00;;;;5059626;28;20202;-78
2022/04/12 03:08:30;;;;;;;3.50;2.75;;;;;15.50;100891.00;;;;5059722;28;20203;-78
2022/04/12 03:10:57;;;;;;;3.38;2.55;;;;;15.50;100880.00;;;;5059790;28;20767;-78
2022/04/12 03:13:24;;;;;;;3.65;2.83;;;;;15.50;100870.00;;;;5056496;28;20278;-78
2022/04/12 03:15:51;;;;;;;3.38;2.22;;;;;15.40;100869.00;;;;5054796;28;20629;-78
2022/04/12 03:18:19;;;;;;;5.28;2.50;;;;;15.40;100878.00;;;;5056559;28;20196;-78
2022/04/12 03:20:46;;;;;;;3.90;2.63;;;;;15.40;100884.00;;;;5057113;28;20642;-78
2022/04/12 03:23:13;;;;;;;3.95;2.35;;;;;15.40;100877.00;;;;5058813;28;20195;-78
2022/04/12 03:25:42;;;;;;;5.63;3.00;;;;;15.40;100882.00;;;;5055869;28;20222;-78
2022/04/12 03:28:09;;;;;;;5.78;2.80;;;;;15.30;100877.00;;;;5058068;28;20237;-78
2022/04/12 03:30:37;;;;;;;4.80;2.55;;;;;15.30;100879.00;;;;5058846;28;20231;-78
2022/04/12 03:33:04;;;;;;;4.78;3.08;;;;;15.30;100871.00;;;;5056106;28;20596;-77
2022/04/12 03:35:32;;;;;;;3.55;2.50;;;;;15.30;100880.00;;;;5059077;28;20731;-80
2022/04/12 03:38:01;;;;;;;3.22;2.58;;;;;15.30;100866.00;;;;5058814;28;20210;-81
2022/04/12 03:40:31;;;;;;;4.53;3.00;;;;;15.20;100870.00;;;;5055319;28;20196;-80
2022/04/12 03:43:00;;;;;;;3.47;2.53;;;;;15.20;100870.00;;;;5055486;28;20223;-78
2022/04/12 03:45:28;;;;;;;3.78;2.80;;;;;15.20;100872.00;;;;5056094;28;20278;-78
2022/04/12 03:47:55;;;;;;;3.60;2.22;;;;;15.20;100863.00;;;;5059471;28;20195;-78
2022/04/12 03:50:23;;;;;;;3.53;2.60;;;;;15.20;100861.00;;;;5058088;28;20249;-78
2022/04/12 03:52:50;;;;;;;3.70;2.30;;;;;15.20;100863.00;;;;5059189;28;20233;-78
2022/04/12 03:55:30;;;;;;;4.28;2.90;;;;;15.10;100865.00;;;;5060949;28;20211;-80
2022/04/12 03:57:59;;;;;;;3.67;2.33;;;;;15.10;100858.00;;;;5057470;28;20206;-80
2022/04/12 04:00:26;;;;;;;5.13;3.20;;;;;15.10;100862.00;;;;5056193;28;20286;-79
2022/04/12 04:02:53;;;;;;;3.85;2.33;;;;;15.10;100864.00;;;;5057536;28;20287;-78
2022/04/12 04:05:21;;;;;;;5.72;2.83;;;;;15.10;100860.00;;;;5054050;28;20198;-78
2022/04/12 04:07:48;;;;;;;3.80;2.63;;;;;15.10;100855.00;;;;5057238;28;20203;-78
2022/04/12 04:10:16;;;;;;;3.00;2.58;;;;;15.10;100846.00;;;;5055181;28;20231;-78
2022/04/12 04:12:43;;;;;;;4.82;3.33;;;;;15.10;100844.00;;;;5056128;28;20211;-78
2022/04/12 04:15:14;;;;;;;4.07;2.75;;;;;15.10;100849.00;;;;5055745;28;20194;-78
2022/04/12 04:17:42;;;;;;;4.40;2.70;;;;;15.10;100848.00;;;;5058284;28;20227;-77
2022/04/12 04:20:12;;;;;;;3.40;2.55;;;;;15.10;100850.00;;;;5055958;28;20198;-78
2022/04/12 04:22:40;;;;;;;3.55;2.20;;;;;15.10;100844.00;;;;5053349;28;20206;-77
2022/04/12 04:25:09;;;;;;;4.90;2.88;;;;;15.10;100845.00;;;;5057165;28;20253;-78
2022/04/12 04:27:36;;;;;;;4.00;2.42;;;;;15.20;100849.00;;;;5055170;28;20757;-78
2022/04/12 04:30:07;;;;;;;3.92;2.50;;;;;15.20;100855.00;;;;5061182;28;21081;-78
2022/04/12 04:32:36;;;;;;;4.78;3.00;;;;;15.20;100862.00;;;;5057669;28;20206;-77
2022/04/12 04:35:04;;;;;;;3.70;2.38;;;;;15.30;100872.00;;;;5053412;28;20697;-78
2022/04/12 04:37:31;;;;;;;5.22;2.38;;;;;15.30;100879.00;;;;5055926;28;20202;-77
2022/04/12 04:39:59;;;;;;;3.45;2.35;;;;;15.30;100876.00;;;;5051511;28;20207;-78
2022/04/12 04:42:27;;;;;;;4.80;2.65;;;;;15.30;100867.00;;;;5062655;28;20205;-77
2022/04/12 04:44:54;;;;;;;4.20;3.00;;;;;15.30;100873.00;;;;5067888;28;20661;-78
2022/04/12 04:47:21;;;;;;;4.20;2.67;;;;;15.40;100872.00;;;;5064011;28;20198;-78
2022/04/12 04:49:50;;;;;;;5.72;2.75;;;;;15.30;100871.00;;;;5068101;28;21881;-78
2022/04/12 04:52:17;;;;;;;4.03;2.33;;;;;15.40;100873.00;;;;5064549;28;20201;-77
2022/04/12 04:54:44;;;;;;;3.45;2.40;;;;;15.40;100873.00;;;;5069838;28;20190;-77
2022/04/12 04:57:11;;;;;;;3.22;2.58;;;;;15.40;100876.00;;;;5074579;28;20683;-78
2022/04/12 04:59:39;;;;;;;4.72;2.70;;;;;15.40;100876.00;;;;5067238;28;20199;-78
2022/04/12 05:02:06;;;;;;;4.40;2.63;;;;;15.40;100880.00;;;;5064711;28;20286;-78
2022/04/12 05:04:33;;;;;;;4.30;2.85;;;;;15.40;100882.00;;;;5064642;28;20203;-77
2022/04/12 05:07:02;;;;;;;4.40;2.78;;;;;15.40;100880.00;;;;5065104;28;20622;-78
2022/04/12 05:09:29;;;;;;;4.53;2.90;;;;;15.40;100884.00;;;;5064210;28;20269;-79
2022/04/12 05:11:56;;;;;;;4.10;2.65;;;;;15.40;100888.00;;;;5070611;28;20723;-78
2022/04/12 05:14:23;;;;;;;4.45;2.88;;;;;15.40;100891.00;;;;5060988;28;20195;-78
2022/04/12 05:16:50;;;;;;;3.88;3.00;;;;;15.40;100901.00;;;;5061626;28;20192;-77
2022/04/12 05:19:18;;;;;;;3.72;2.78;;;;;15.40;100900.00;;;;5067112;28;20191;-77
2022/04/12 05:21:45;;;;;;;3.30;2.38;;;;;15.40;100898.00;;;;5067106;28;20199;-77
2022/04/12 05:24:13;;;;;;;3.88;2.65;;;;;15.40;100892.00;;;;5071513;28;20619;-77
2022/04/12 05:26:41;;;;;;;4.22;2.35;;;;;15.40;100889.00;;;;5056811;28;20199;-77
2022/04/12 05:29:08;;;;;;;5.25;2.78;;;;;15.30;100885.00;;;;5060054;28;20202;-77
2022/04/12 05:31:35;;;;;;;4.30;3.00;;;;;15.30;100880.00;;;;5070477;28;21191;-77
2022/04/12 05:34:02;;;;;;;3.25;2.20;;;;;15.30;100867.00;;;;5069059;28;20194;-77
2022/04/12 05:36:29;;;;;;;5.30;3.17;;;;;15.30;100866.00;;;;5072101;28;20219;-77
2022/04/12 05:38:57;;;;;;;4.32;2.53;;;;;15.30;100867.00;;;;5072410;28;20199;-78
2022/04/12 05:41:26;;;;;;;3.85;2.65;;;;;15.20;100867.00;;;;5068960;28;20229;-78
2022/04/12 05:43:53;;;;;;;4.05;2.95;;;;;15.20;100864.00;;;;5074052;28;20248;-76
2022/04/12 05:46:20;;;;;;;4.45;2.47;;;;;15.20;100861.00;;;;5060081;28;20203;-76
2022/04/12 05:48:48;;;;;;;4.68;2.58;;;;;15.20;100860.00;;;;5071933;28;20997;-78
2022/04/12 05:51:15;;;;;;;4.95;2.95;;;;;15.20;100855.00;;;;5065152;28;20843;-78
2022/04/12 05:53:42;;;;;;;5.63;2.95;;;;;15.20;100861.00;;;;5058551;28;20991;-78
2022/04/12 05:56:10;;;;;;;3.72;2.72;;;;;15.20;100859.00;;;;5067346;28;20199;-79
2022/04/12 05:58:40;;;;;;;4.00;2.95;;;;;15.20;100871.00;;;;5059007;28;20662;-78
2022/04/12 06:01:07;;;;;;;4.13;2.78;;;;;15.20;100880.00;;;;5059600;28;20191;-80
2022/04/12 06:03:35;;;;;;;4.07;2.83;;;;;15.20;100881.00;;;;5065936;28;20199;-76
2022/04/12 06:06:02;;;;;;;4.38;2.70;;;;;15.20;100884.00;;;;5067855;28;20194;-77
2022/04/12 06:08:29;;;;;;;6.32;3.20;;;;;15.30;100880.00;;;;5061502;28;20195;-77
2022/04/12 06:10:56;;;;;;;4.53;2.88;;;;;15.30;100882.00;;;;5058196;28;20223;-76
2022/04/12 06:13:23;;;;;;;3.50;2.45;;;;;15.40;100886.00;;;;5051441;28;20290;-76
2022/04/12 06:15:52;;;;;;;5.55;2.70;;;;;15.40;100890.00;;;;5050599;28;20196;-76
2022/04/12 06:18:19;;;;;;;4.45;3.17;;;;;15.50;100899.00;;;;5062603;28;20203;-76
2022/04/12 06:20:47;;;;;;;4.60;3.10;;;;;15.50;100903.00;;;;5070218;28;20242;-76
2022/04/12 06:23:14;;;;;;;4.15;2.97;;;;;15.60;100900.00;;;;5070745;28;20202;-76
2022/04/12 06:25:41;;;;;;;5.30;3.35;;;;;15.60;100895.00;;;;5070719;28;20211;-76
2022/04/12 06:28:09;;;;;;;4.65;3.00;;;;;15.70;100896.00;;;;5070238;28;20195;-76
2022/04/12 06:30:36;;;;;;;4.22;3.05;;;;;15.80;100884.00;;;;5062820;28;20299;-76
2022/04/12 06:33:05;;;;;;;4.35;2.72;;;;;15.80;100874.00;;;;5049783;28;20678;-75
2022/04/12 06:35:32;;;;;;;5.47;3.42;;;;;15.90;100866.00;;;;5062889;28;20231;-76
2022/04/12 06:37:59;;;;;;;4.55;3.25;;;;;16.00;100868.00;;;;5070709;28;20215;-76
2022/04/12 06:40:27;;;;;;;6.95;3.10;;;;;16.00;100859.00;;;;5049953;28;20563;-76
2022/04/12 06:42:54;;;;;;;4.93;3.58;;;;;16.10;100865.00;;;;5052144;28;20202;-76
2022/04/12 06:45:21;;;;;;;4.68;3.17;;;;;16.20;100867.00;;;;5067419;28;20199;-76
2022/04/12 06:47:54;;;;;;;3.92;3.53;;;;;16.20;100867.00;;;;5068941;28;20195;-76
2022/04/12 06:50:23;;;;;;;4.82;3.08;;;;;16.40;100875.00;;;;5068719;28;20285;-76
2022/04/12 06:52:51;;;;;;;3.30;2.60;;;;;16.50;100879.00;;;;5068948;28;20272;-75
2022/04/12 06:55:19;;;;;;;5.20;3.28;;;;;16.50;100870.00;;;;5070100;28;20210;-76
2022/04/12 06:57:46;;;;;;;5.47;3.53;;;;;16.60;100874.00;;;;5069734;28;20179;-76
2022/04/12 07:00:16;;;;;;;5.30;3.40;;;;;16.70;100871.00;;;;5065173;28;20624;-75
2022/04/12 07:02:43;;;;;;;4.80;3.47;;;;;16.80;100866.00;;;;5049763;28;20207;-76
2022/04/12 07:05:12;;;;;;;4.95;3.30;;;;;16.90;100862.00;;;;5048777;28;20204;-76
2022/04/12 07:07:41;;;;;;;4.88;3.17;;;;;16.90;100854.00;;;;5049264;28;20211;-76
2022/04/12 07:10:10;;;;;;;5.30;3.42;;;;;17.10;100857.00;;;;5062067;28;20618;-76
2022/04/12 07:12:38;;;;;;;4.10;3.20;;;;;17.20;100857.00;;;;5055792;28;20618;-76
2022/04/12 07:15:07;;;;;;;4.40;3.70;;;;;17.20;100858.00;;;;5050202;28;20253;-76
2022/04/12 07:17:35;;;;;;;5.22;3.60;;;;;17.30;100866.00;;;;5049524;28;20196;-76
2022/04/12 07:20:02;;;;;;;4.50;3.33;;;;;17.40;100884.00;;;;5061432;28;20206;-76
2022/04/12 07:22:30;;;;;;;10.10;3.33;;;;;17.50;100869.00;;;;5068992;28;20234;-76
2022/04/12 07:24:59;;;;;;;4.60;3.60;;;;;17.60;100861.00;;;;5069019;28;20223;-76
2022/04/12 07:27:26;;;;;;;7.20;3.35;;;;;17.70;100854.00;;;;5056319;28;20195;-76
2022/04/12 07:29:53;;;;;;;4.45;3.42;;;;;17.80;100860.00;;;;5069649;28;20202;-76
2022/04/12 07:32:20;;;;;;;5.05;3.22;;;;;17.80;100853.00;;;;5068593;28;20230;-76
2022/04/12 07:34:48;;;;;;;5.18;3.33;;;;;17.90;100850.00;;;;5068924;28;20199;-76
2022/04/12 07:37:16;;;;;;;5.18;3.33;;;;;18.00;100851.00;;;;5069527;28;20225;-76
2022/04/12 07:39:43;;;;;;;4.82;3.10;;;;;18.10;100861.00;;;;5067162;28;20231;-76
2022/04/12 07:42:13;;;;;;;4.57;3.40;;;;;18.20;100856.00;;;;5069017;28;20206;-76
2022/04/12 07:44:40;;;;;;;3.88;2.97;;;;;18.30;100852.00;;;;5068961;28;20205;-76
2022/04/12 07:47:09;;;;;;;4.07;3.17;;;;;18.40;100857.00;;;;5068564;28;20263;-76
2022/04/12 07:49:36;;;;;;;5.82;4.03;;;;;18.40;100853.00;;;;5068916;28;20627;-76
2022/04/12 07:52:03;;;;;;;5.28;3.45;;;;;18.50;100859.00;;;;5069006;28;20233;-76
2022/04/12 07:54:30;;;;;;;6.00;4.43;;;;;18.60;100862.00;;;;5068614;28;20214;-76
2022/04/12 07:56:58;;;;;;;4.38;3.80;;;;;18.70;100869.00;;;;5068476;28;20210;-76
2022/04/12 07:59:26;;;;;;;4.97;3.60;;;;;18.70;100873.00;;;;5068941;28;20198;-76
2022/04/12 08:01:53;;;;;;;4.88;3.78;;;;;18.80;100880.00;;;;5069011;28;20668;-76
2022/04/12 08:04:21;;;;;;;6.10;4.22;;;;;18.90;100889.00;;;;5068678;28;20194;-76
2022/04/12 08:06:48;;;;;;;7.85;5.07;;;;;18.90;100890.00;;;;5068672;28;20561;-76
2022/04/12 08:09:15;;;;;;;6.22;4.22;;;;;19.00;100880.00;;;;5062178;28;20196;-76
2022/04/12 08:11:42;;;;;;;6.60;5.28;;;;;19.00;100877.00;;;;5048725;28;20223;-76
2022/04/12 08:14:09;;;;;;;6.55;4.57;;;;;19.10;100860.00;;;;5048751;28;20214;-76
2022/04/12 08:16:38;;;;;;;7.88;5.13;;;;;19.20;100859.00;;;;5053907;28;20210;-76
2022/04/12 08:19:05;;;;;;;7.60;5.55;;;;;19.30;100867.00;;;;5049963;28;20204;-76
2022/04/12 08:21:34;;;;;;;7.90;5.05;;;;;19.40;100868.00;;;;5052005;28;20225;-76
2022/04/12 08:24:01;;;;;;;8.88;4.80;;;;;19.50;100879.00;;;;5060889;28;20240;-76
2022/04/12 08:26:29;;;;;;;6.80;4.75;;;;;19.60;100859.00;;;;5067861;28;20202;-76
2022/04/12 08:28:56;;;;;;;7.00;4.72;;;;;19.70;100855.00;;;;5048990;28;20199;-76
2022/04/12 08:31:24;;;;;;;6.00;4.55;;;;;19.80;100857.00;;;;5047374;28;20223;-76
2022/04/12 08:33:52;;;;;;;6.15;4.22;;;;;19.90;100859.00;;;;5057094;28;20202;-76
2022/04/12 08:36:22;;;;;;;5.20;4.13;;;;;20.00;100869.00;;;;5067921;28;20222;-76
2022/04/12 08:38:51;;;;;;;6.72;4.57;;;;;20.10;100868.00;;;;5066282;28;20226;-76
2022/04/12 08:41:22;;;;;;;7.25;4.30;;;;;20.20;100867.00;;;;5048804;28;20654;-76
2022/04/12 08:43:54;;;;;;;5.60;3.47;;;;;20.30;100867.00;;;;5048515;28;20573;-76
2022/04/12 08:46:24;;;;;;;4.53;3.58;;;;;20.40;100861.00;;;;5047969;28;20206;-76
2022/04/12 08:48:54;;;;;;;5.15;4.13;;;;;20.40;100861.00;;;;5048615;28;20196;-76
2022/04/12 08:51:22;;;;;;;5.93;3.58;;;;;20.60;100851.00;;;;5060084;28;20692;-77
2022/04/12 08:53:50;;;;;;;5.65;4.55;;;;;20.70;100857.00;;;;5068464;28;20289;-77
2022/04/12 08:56:18;;;;;;;4.72;3.60;;;;;20.80;100855.00;;;;5068320;28;20204;-77
2022/04/12 08:58:45;;;;;;;6.43;4.47;;;;;20.90;100856.00;;;;5067518;28;20202;-76
2022/04/12 09:01:13;;;;;;;6.10;3.88;;;;;21.00;100844.00;;;;5068604;28;20195;-76
2022/04/12 09:03:40;;;;;;;5.07;3.97;;;;;21.10;100839.00;;;;5068226;28;20195;-76
2022/04/12 09:06:11;;;;;;;5.20;4.10;;;;;21.10;100838.00;;;;5067470;28;20695;-76
2022/04/12 09:08:39;;;;;;;4.50;3.58;;;;;21.20;100843.00;;;;5064558;28;20199;-76
2022/04/12 09:11:08;;;;;;;6.25;3.55;;;;;21.30;100831.00;;;;5067579;28;20268;-76
2022/04/12 09:13:36;;;;;;;6.20;3.33;;;;;21.40;100831.00;;;;5068087;28;21057;-76
2022/04/12 09:16:09;;;;;;;6.18;4.53;;;;;21.40;100847.00;;;;5067809;28;20241;-76
2022/04/12 09:18:38;;;;;;;5.70;3.65;;;;;21.50;100850.00;;;;5067622;28;20229;-76
2022/04/12 09:21:17;;;;;;;4.55;3.50;;;;;21.60;100854.00;;;;5067792;28;20202;-76
2022/04/12 09:23:49;;;;;;;6.53;4.15;;;;;21.70;100860.00;;;;5067739;28;20214;-76
2022/04/12 09:26:18;;;;;;;4.30;3.28;;;;;21.80;100853.00;;;;5067847;28;20210;-77
2022/04/12 09:28:45;;;;;;;4.93;3.30;;;;;21.90;100844.00;;;;5063805;28;20207;-76
2022/04/12 09:31:14;;;;;;;6.55;4.00;;;;;22.00;100844.00;;;;5051732;28;20230;-76
2022/04/12 09:33:43;;;;;;;5.10;3.25;;;;;22.10;100833.00;;;;5051298;28;20245;-76
2022/04/12 09:36:11;;;;;;;3.72;3.10;;;;;22.10;100850.00;;;;5051075;28;20285;-76
2022/04/12 09:38:41;;;;;;;5.47;3.03;;;;;22.20;100844.00;;;;5053050;28;20211;-76
2022/04/12 09:41:17;;;;;;;4.85;3.70;;;;;22.30;100835.00;;;;5053534;28;20196;-77
2022/04/12 09:44:05;;;;;;;3.85;3.05;;;;;22.40;100833.00;;;;5070984;28;20205;-77
2022/04/12 09:46:34;;;;;;;3.97;3.22;;;;;22.50;100828.00;;;;5070921;28;20199;-77
2022/04/12 09:49:01;;;;;;;4.15;3.45;;;;;22.60;100839.00;;;;5071177;28;20630;-77
2022/04/12 09:51:29;;;;;;;5.65;3.53;;;;;22.70;100832.00;;;;5070797;28;20202;-77
2022/04/12 09:53:57;;;;;;;4.75;2.97;;;;;22.80;100833.00;;;;5071052;28;20206;-77
2022/04/12 09:56:26;;;;;;;3.80;3.28;;;;;22.90;100829.00;;;;5071092;28;20191;-77
2022/04/12 09:58:56;;;;;;;5.32;3.67;;;;;23.00;100829.00;;;;5071017;28;20211;-77
2022/04/12 10:01:24;;;;;;;4.55;3.70;;;;;23.10;100823.00;;;;5070924;28;20199;-76
2022/04/12 10:03:52;;;;;;;3.65;3.28;;;;;23.20;100823.00;;;;5070736;28;20267;-77
2022/04/12 10:06:21;;;;;;;4.22;3.03;;;;;23.30;100811.00;;;;5070737;28;20198;-76
2022/04/12 10:08:53;;;;;;;4.55;3.80;;;;;23.40;100811.00;;;;5068912;28;20199;-76
2022/04/12 10:11:22;;;;;;;4.68;3.40;;;;;23.50;100814.00;;;;5070066;28;20206;-76
2022/04/12 10:13:50;;;;;;;4.25;3.25;;;;;23.60;100809.00;;;;5056871;28;20242;-77
2022/04/12 10:16:19;;;;;;;4.75;3.47;;;;;23.70;100816.00;;;;5060984;28;20214;-77
2022/04/12 10:18:47;;;;;;;5.35;3.63;;;;;23.80;100809.00;;;;5070532;28;20564;-77
2022/04/12 10:21:15;;;;;;;4.82;3.20;;;;;23.90;100811.00;;;;5070307;28;20569;-77
2022/04/12 10:23:46;;;;;;;4.05;3.40;;;;;24.00;100814.00;;;;5069790;28;20207;-76
2022/04/12 10:26:14;;;;;;;6.60;3.83;;;;;24.10;100805.00;;;;5070399;28;20655;-76
2022/04/12 10:28:43;;;;;;;3.88;3.42;;;;;24.20;100801.00;;;;5069815;28;20199;-77
2022/04/12 10:31:22;;;;;;;5.75;3.22;;;;;24.30;100798.00;;;;5069676;28;20206;-77
2022/04/12 10:34:03;;;;;;;3.80;2.90;;;;;24.40;100793.00;;;;5069435;28;20237;-77
2022/04/12 10:36:54;;;;;;;3.63;3.30;;;;;24.50;100798.00;;;;5069257;28;20250;-76
2022/04/12 10:39:26;;;;;;;3.95;3.22;;;;;24.70;100795.00;;;;5056212;28;20203;-77
2022/04/12 10:41:55;;;;;;;4.68;2.85;;;;;24.80;100783.00;;;;5052825;28;20605;-77
2022/04/12 10:44:25;;;;;;;4.82;3.10;;;;;24.90;100794.00;;;;5049771;28;20191;-76
2022/04/12 10:46:53;;;;;;;4.80;2.90;;;;;25.00;100784.00;;;;5049622;28;20333;-77
2022/04/12 10:49:21;;;;;;;5.55;3.53;;;;;25.10;100779.00;;;;5052921;28;20211;-76
2022/04/12 10:51:57;;;;;;;5.55;3.53;;;;;25.20;100777.00;;;;5069226;28;20603;-77
2022/04/12 10:54:33;;;;;;;6.22;3.55;;;;;25.30;100772.00;;;;5069853;28;20255;-77
2022/04/12 10:57:23;;;;;;;3.38;3.00;;;;;25.40;100775.00;;;;5069345;28;20205;-76
2022/04/12 10:59:54;;;;;;;5.70;3.55;;;;;25.50;100770.00;;;;5069674;28;20665;-76
2022/04/12 11:02:22;;;;;;;4.05;3.22;;;;;25.60;100778.00;;;;5069123;28;20207;-77
2022/04/12 11:04:49;;;;;;;3.35;2.95;;;;;25.70;100765.00;;;;5070058;28;20222;-76
2022/04/12 11:07:30;;;;;;;3.95;2.88;;;;;25.60;100760.00;;;;5062513;28;20203;-76
2022/04/12 11:10:18;;;;;;;3.47;2.78;;;;;25.70;100763.00;;;;5049794;28;20207;-76
2022/04/12 11:12:46;;;;;;;5.93;2.80;;;;;25.80;100760.00;;;;5049407;28;20223;-76
2022/04/12 11:15:26;;;;;;;5.05;2.90;;;;;25.80;100761.00;;;;5049332;28;20191;-76
2022/04/12 11:18:08;;;;;;;3.90;2.60;;;;;25.90;100757.00;;;;5049159;28;20295;-76
2022/04/12 11:20:36;;;;;;;3.58;2.88;;;;;26.10;100764.00;;;;5048874;28;20195;-76
2022/04/12 11:23:08;;;;;;;7.07;3.22;;;;;26.10;100759.00;;;;5050565;28;20294;-76
2022/04/12 11:25:45;;;;;;;4.45;2.78;;;;;26.20;100743.00;;;;5068566;28;20226;-76
2022/04/12 11:28:15;;;;;;;7.15;2.78;;;;;26.30;100751.00;;;;5057294;28;20206;-76
2022/04/12 11:30:54;;;;;;;3.95;2.70;;;;;26.30;100754.00;;;;5047887;28;20211;-76
2022/04/12 11:33:25;;;;;;;4.32;3.03;;;;;26.40;100752.00;;;;5048345;28;20231;-77
2022/04/12 11:35:53;;;;;;;3.70;2.85;;;;;26.60;100754.00;;;;5048770;28;20231;-76
2022/04/12 11:38:22;;;;;;;4.20;2.78;;;;;26.70;100753.00;;;;5063288;28;20203;-76
2022/04/12 11:40:50;;;;;;;3.92;2.97;;;;;26.80;100755.00;;;;5068852;28;20261;-76
2022/04/12 11:43:21;;;;;;;4.22;2.97;;;;;26.80;100754.00;;;;5068021;28;20203;-76
2022/04/12 11:45:53;;;;;;;3.72;2.70;;;;;26.90;100755.00;;;;5069052;28;20612;-76
2022/04/12 11:48:21;;;;;;;4.75;2.30;;;;;27.00;100753.00;;;;5067663;28;20299;-76
2022/04/12 11:50:52;;;;;;;5.15;2.67;;;;;27.00;100746.00;;;;5056742;28;20290;-76
2022/04/12 11:53:20;;;;;;;3.33;1.98;;;;;27.00;100743.00;;;;5068884;28;20310;-76
2022/04/12 11:55:47;;;;;;;2.40;2.13;;;;;27.10;100734.00;;;;5069045;28;20236;-76
2022/04/12 11:58:15;;;;;;;4.43;2.40;;;;;27.10;100722.00;;;;5068828;28;20210;-76
2022/04/12 12:00:42;;;;;;;5.03;2.40;;;;;27.10;100732.00;;;;5069053;28;20194;-77
2022/04/12 12:03:17;;;;;;;6.60;2.45;;;;;27.00;100758.00;;;;5069028;28;20570;-76
2022/04/12 12:05:46;;;;;;;4.40;2.08;;;;;27.10;100764.00;;;;5069268;28;20198;-76
2022/04/12 12:08:19;;;;;;;2.83;1.83;;;;;27.10;100745.00;;;;5051641;28;20202;-76
2022/04/12 12:10:46;;;;;;;6.30;2.20;;;;;27.10;100744.00;;;;5049060;28;20249;-76
2022/04/12 12:13:14;;;;;;;2.10;1.77;;;;;27.10;100741.00;;;;5049107;28;20314;-76
2022/04/12 12:15:41;;;;;;;2.45;1.73;;;;;27.10;100742.00;;;;5053634;28;20199;-76
2022/04/12 12:18:09;;;;;;;4.97;3.08;;;;;27.20;100763.00;;;;5048641;28;20245;-76